CheckWX is a tool to help pilots better visualize weather data.  It is not intended as a substitute for an official pre-flight weather briefing.

20:53:16 UTC

KHSI METAR
Hastings Municipal Airport
Hastings, Nebraska, USA
Current

60 mins ago

KHSI 231953Z AUTO 09008G17KT 10SM CLR 19/M03 A3008 RMK AO2 SLP186 T01891033
Observed
Apr-23 @ 19:53 UTC
Wind
  • 090° at 8 KTS
  • Gusting to 17 KTS
Visibility
10 SM
Flight Rules
VFR
Cloud Levels
  • Clear skies
Temperature
19°C / 66°F
Dewpoint
-3°C / 27°F
Humidity
22%
Altimeter
30.08" Hg
Pressure
1018.62 hPa
Previous

2 hours ago

KHSI 231853Z AUTO 05013G17KT 10SM CLR 18/M02 A3010 RMK AO2 SLP191 T01831022
Observed
Apr-23 @ 18:53 UTC
Wind
  • 050° at 13 KTS
  • Gusting to 17 KTS
Visibility
10 SM
Flight Rules
VFR
Cloud Levels
  • Clear skies
Temperature
18°C / 64°F
Dewpoint
-2°C / 28°F
Humidity
26%
Altimeter
30.1" Hg
Pressure
1019.32 hPa
Previous

3 hours ago

KHSI 231753Z AUTO 04013G21KT 10SM CLR 17/M02 A3013 RMK AO2 SLP202 T01721022 10172 20044 58014
Observed
Apr-23 @ 17:53 UTC
Wind
  • 040° at 13 KTS
  • Gusting to 21 KTS
Visibility
10 SM
Flight Rules
VFR
Cloud Levels
  • Clear skies
Temperature
17°C / 63°F
Dewpoint
-2°C / 28°F
Humidity
27%
Altimeter
30.13" Hg
Pressure
1020.32 hPa